Jose de San Martin, Argentina
Current Conditions -  °F | °C
As of 4:00 AM on Friday 24 Oct 2014 (Local Time) from SCAP Reporting Station
Few Clouds Few Clouds  
Wind Chill: 39°   Ceiling: Unl
Heat Index: 39°   Visibility: NA
Dew Point: 37°   Wind: 1mph
Humidity: 93%   Direction: NA
Pressure: 30.33"   Gusts: NA
Location:  44.03°S, 70.48°W
Report Text: SCAP 240700Z AUTO VRB01KT //// // FEW003 04/03 Q1027
Loading
Personal Weather Stations






























Interactive Weather Map
Tropical Storm Tracking
New forecast layout! Learn more

10-Day Weather Forecast

Advertisements
Track Severe Weather on mobile